AirNav   TITAN Aviation Fuels
 
 1279 users online  

TA78 Putty Ranch Airport
Hico, Texas, USA

GOING TO HICO?


FAA INFORMATION EFFECTIVE 22 APRIL 2021

Location

FAA Identifier: TA78
Lat/Long: 31-58-20.5310N 098-03-41.1260W
31-58.342183N 098-03.685433W
31.9723697,-98.0614239
(estimated)
Elevation: 1143 ft. / 348 m (estimated)
Variation: 07E (1985)
From city: 2 miles SW of HICO, TX
Time zone: UTC -5 (UTC -6 during Standard Time)
Zip code: 76457

Airport Operations

Airport use: Private use. Permission required prior to landing
Activation date: 07/1979
Control tower: no
ARTCC: FORT WORTH CENTER
FSS: FORT WORTH FLIGHT SERVICE STATION
Attendance: UNATNDD
Wind indicator: no
Segmented circle: no

Airport Communications

WX AWOS-3 at SEP (16 nm N): 118.075 (254-965-8672)
WX AWOS-3 at MNZ (19 nm S): 118.525 (254-386-8211)

Airport Services

Fuel available: 100LL
FOR EMERGENCY USE ONLY.

Runway Information

Runway 17/35

Dimensions: 3500 x 60 ft. / 1067 x 18 m
Surface: turf
RUNWAY 17  RUNWAY 35
Traffic pattern: leftleft

Airport Ownership and Management from official FAA records

Ownership: Privately-owned
Owner: JOHNNY B. PUTTY
RT 2 BOX 54
HICO, TX 76457
Phone 817-796-4165
Manager: JOHNNY B. PUTTY
RT 2 BOX 54
HICO, TX 76457
Phone 817-796-4165
JAMES PUTTY 1676 CR 133 HICO TX 76457 817-637-4783

Airport Operational Statistics

Aircraft based on the field: 1
Single engine airplanes: 1
    

Additional Remarks

FOR CD CTC FORT WORTH ARTCC AT 817-858-7584.

Instrument Procedures

There are no published instrument procedures at TA78.

Some nearby airports with instrument procedures:

KSEP - Stephenville Clark Regional Airport (16 nm N)
KMNZ - Hamilton Municipal Airport (19 nm S)
KMKN - Comanche County-City Airport (28 nm W)
KGDJ - Granbury Regional Airport (31 nm NE)
KCPT - Cleburne Regional Airport (39 nm NE)
 
Loc | Ops | Rwys | IFR | FBO | Links
Com | Nav | Svcs | Stats | Notes

City of Fort Worth
 
Area around TA78 (Putty Ranch Airport)
 
Road maps at: MapQuest Bing Google
 
Aerial photo
No photo
 
Sectional chart

 
Airport distance calculator
Flying to Putty Ranch Airport? Find the distance to fly.

From to TA78

Sunrise and sunset
Times for 05-May-2021
 Local
(UTC-5)
 Zulu
(UTC)
Morning civil twilight06:1711:17
Sunrise06:4411:44
Sunset20:1401:14
Evening civil twilight20:4001:40

Current date and time
Zulu (UTC)  05-May-2021 21:39:18
Local (UTC-5)  05-May-2021 16:39:18
 
METAR
KSEP 
16nm N 
052115Z AUTO 13006KT 10SM CLR 25/04 A3013 RMK AO2 T02460043
KMNZ 
19nm S 
052115Z AUTO 10004KT 7SM CLR 27/05 A3012 RMK AO2 T02660053
KMKN 
28nm W 
052115Z AUTO 13003KT 10SM CLR 24/09 A3012 RMK AO2 T02350086
KGDJ 
31nm NE 
AWOS-3 118.925 817-573-7514
052115Z AUTO 06006KT 10SM CLR 25/03 A3012 RMK AO2 T02460030
TAF
KACT 
47nm SE 
051720Z 0518/0618 02010KT P6SM SKC FM060000 07004KT P6SM SKC FM061500 06007KT P6SM SCT250
NOTAMs
Click for the latest NOTAMs
NOTAMs are issued by the DoD/FAA and will open in a separate window not controlled by AirNav.

 

 
 

Would you like to see your business listed on this page?

 If your business provides an interesting product or service to pilots, flight crews, aircraft, or users of the Putty Ranch Airport, you should consider listing it here.  To start the listing process, click on the button below
 
Add a business
 

Other Pages about Putty Ranch Airport

Update a link
 
Copyright © AirNav, LLC. All rights reserved. Privacy Policy  Contact